Observation data for White River Lake on 06/24/2019      Previous  Date  Next       Current Mesonet Observations  Soil Data  Daily Summary Page  Observations in Plain Language
KWVS 240500Z 08006KT 23/15 A2989 RMK A01 T02280151  RH  065%=      5-min Rain = 0
KWVS 240505Z 09006KT 23/15 A2989 RMK A01 T02270152  RH  066%=      5-min Rain = 0
KWVS 240510Z 09007KT 23/16 A2989 RMK A01 T02280155  RH  066%=      5-min Rain = 0
KWVS 240515Z 07006KT 23/15 A299 RMK A01 T02260154  RH  066%=      5-min Rain = 0
KWVS 240520Z 07006KT 22/15 A299 RMK A01 T02230154  RH  068%=      5-min Rain = 0
KWVS 240525Z 08006KT 22/16 A299 RMK A01 T02200155  RH  070%=      5-min Rain = 0
KWVS 240530Z 09007KT 22/16 A299 RMK A01 T02190158  RH  072%=      5-min Rain = 0
KWVS 240535Z 10008KT 22/16 A299 RMK A01 T02190161  RH  073%=      5-min Rain = 0
KWVS 240540Z 10007KT 22/16 A299 RMK A01 T02200163  RH  074%=      5-min Rain = 0
KWVS 240545Z 08006KT 22/16 A299 RMK A01 T02190164  RH  074%=      5-min Rain = 0
KWVS 240550Z 09006KT 22/16 A299 RMK A01 T02180164  RH  075%=      5-min Rain = 0
KWVS 240555Z 08005KT 22/16 A299 RMK A01 T02170164  RH  075%=      5-min Rain = 0
KWVS 240600Z 07006KT 22/16 A299 RMK A01 T02160164  RH  076%=      5-min Rain = 0
KWVS 240605Z 09007KT 21/16 A299 RMK A01 T02120163  RH  078%=      5-min Rain = 0
KWVS 240610Z 08003KT 21/16 A299 RMK A01 T02110164  RH  078%=      5-min Rain = 0
KWVS 240615Z 03002KT 21/16 A2991 RMK A01 T02090164  RH  079%=      5-min Rain = 0
KWVS 240620Z 04004KT 21/16 A2991 RMK A01 T02060163  RH  080%=      5-min Rain = 0
KWVS 240625Z 03005KT 20/16 A2991 RMK A01 T02030163  RH  082%=      5-min Rain = 0
KWVS 240630Z 03005KT 20/16 A299 RMK A01 T01990163  RH  083%=      5-min Rain = 0
KWVS 240635Z 02007KT 20/16 A2991 RMK A01 T01980163  RH  084%=      5-min Rain = 0
KWVS 240640Z 02006KT 20/16 A2991 RMK A01 T01960163  RH  085%=      5-min Rain = 0
KWVS 240645Z 02006KT 20/16 A299 RMK A01 T01960162  RH  085%=      5-min Rain = 0
KWVS 240650Z 01005KT 19/16 A2991 RMK A01 T01940162  RH  086%=      5-min Rain = 0
KWVS 240655Z 04005KT 19/16 A299 RMK A01 T01940162  RH  086%=      5-min Rain = 0
KWVS 240700Z 04005KT 20/16 A2991 RMK A01 T01950163  RH  086%=      5-min Rain = 0
KWVS 240705Z 04005KT 19/16 A2991 RMK A01 T01940163  RH  087%=      5-min Rain = 0
KWVS 240710Z 05006KT 19/16 A2991 RMK A01 T01940164  RH  087%=      5-min Rain = 0
KWVS 240715Z 04007KT 20/17 A2991 RMK A01 T01950166  RH  087%=      5-min Rain = 0
KWVS 240720Z 05007KT 20/17 A2991 RMK A01 T02000167  RH  086%=      5-min Rain = 0
KWVS 240725Z 06007KT 20/17 A2991 RMK A01 T02040168  RH  084%=      5-min Rain = 0
KWVS 240730Z 06007KT 20/17 A2991 RMK A01 T02040168  RH  084%=      5-min Rain = 0
KWVS 240735Z 05007KT 20/17 A2991 RMK A01 T02020168  RH  085%=      5-min Rain = 0
KWVS 240740Z 05008KT 20/17 A2991 RMK A01 T02010168  RH  085%=      5-min Rain = 0
KWVS 240745Z 04008KT 20/17 A2992 RMK A01 T02000167  RH  086%=      5-min Rain = 0
KWVS 240750Z 02009KT 20/17 A2992 RMK A01 T02000168  RH  086%=      5-min Rain = 0
KWVS 240755Z 01009KT 20/17 A2993 RMK A01 T01950166  RH  088%=      5-min Rain = 0
KWVS 240800Z 03007KT 19/17 A2993 RMK A01 T01930166  RH  089%=      5-min Rain = 0
KWVS 240805Z 05008KT 20/17 A2992 RMK A01 T01960168  RH  088%=      5-min Rain = 0
KWVS 240810Z 03009KT 20/17 A2992 RMK A01 T02010169  RH  086%=      5-min Rain = 0
KWVS 240815Z 02009KT 20/17 A2993 RMK A01 T02000169  RH  087%=      5-min Rain = 0
KWVS 240820Z 03007KT 20/17 A2992 RMK A01 T01970168  RH  088%=      5-min Rain = 0
KWVS 240825Z 03008KT 20/17 A2992 RMK A01 T01970169  RH  088%=      5-min Rain = 0
KWVS 240830Z 03009KT 20/17 A2992 RMK A01 T02000170  RH  087%=      5-min Rain = 0
KWVS 240835Z 03008KT 20/17 A2992 RMK A01 T01990169  RH  087%=      5-min Rain = 0
KWVS 240840Z 03009KT 20/17 A2992 RMK A01 T01990169  RH  087%=      5-min Rain = 0
KWVS 240845Z 03008KT 20/17 A2992 RMK A01 T01990169  RH  087%=      5-min Rain = 0
KWVS 240850Z 03009KT 20/17 A2992 RMK A01 T02000169  RH  087%=      5-min Rain = 0
KWVS 240855Z 03008KT 20/17 A2992 RMK A01 T01980169  RH  088%=      5-min Rain = 0
KWVS 240900Z 04010G15KT 20/17 A2992 RMK A01 T02000170  RH  087%=      5-min Rain = 0
KWVS 240905Z 03010KT 20/17 A2992 RMK A01 T02010170  RH  086%=      5-min Rain = 0
KWVS 240910Z 04009KT 20/17 A2992 RMK A01 T02000170  RH  087%=      5-min Rain = 0
KWVS 240915Z 04010KT 20/17 A2992 RMK A01 T02010169  RH  086%=      5-min Rain = 0
KWVS 240920Z 04010KT 20/17 A2993 RMK A01 T02020169  RH  085%=      5-min Rain = 0
KWVS 240925Z 04009KT 20/17 A2993 RMK A01 T02020169  RH  085%=      5-min Rain = 0
KWVS 240930Z 04008KT 20/17 A2993 RMK A01 T02010169  RH  086%=      5-min Rain = 0
KWVS 240935Z 04008KT 20/17 A2993 RMK A01 T01990169  RH  087%=      5-min Rain = 0
KWVS 240940Z 04008KT 20/17 A2993 RMK A01 T01990168  RH  087%=      5-min Rain = 0
KWVS 240945Z 04008KT 20/17 A2993 RMK A01 T01990168  RH  086%=      5-min Rain = 0
KWVS 240950Z 04008KT 20/17 A2994 RMK A01 T01990167  RH  086%=      5-min Rain = 0
KWVS 240955Z 04010KT 20/17 A2994 RMK A01 T01980167  RH  087%=      5-min Rain = 0
KWVS 241000Z 04008KT 20/17 A2994 RMK A01 T01960167  RH  087%=      5-min Rain = 0
KWVS 241005Z 05009KT 20/17 A2994 RMK A01 T01960166  RH  087%=      5-min Rain = 0
KWVS 241010Z 05009KT 20/17 A2994 RMK A01 T01970166  RH  086%=      5-min Rain = 0
KWVS 241015Z 05008KT 20/17 A2995 RMK A01 T01970165  RH  086%=      5-min Rain = 0
KWVS 241020Z 05008KT 20/17 A2995 RMK A01 T01960165  RH  087%=      5-min Rain = 0
KWVS 241025Z 05008G13KT 20/17 A2995 RMK A01 T01950165  RH  087%=      5-min Rain = 0
KWVS 241030Z 04009KT 19/17 A2995 RMK A01 T01930165  RH  088%=      5-min Rain = 0
KWVS 241035Z 04009KT 19/17 A2996 RMK A01 T01930165  RH  088%=      5-min Rain = 0
KWVS 241040Z 04010G15KT 19/17 A2996 RMK A01 T01930165  RH  088%=      5-min Rain = 0
KWVS 241045Z 04010KT 19/17 A2995 RMK A01 T01940165  RH  088%=      5-min Rain = 0
KWVS 241050Z 03010KT 19/17 A2995 RMK A01 T01930165  RH  088%=      5-min Rain = 0
KWVS 241055Z 03011KT 19/16 A2995 RMK A01 T01920164  RH  088%=      5-min Rain = 0
KWVS 241100Z 02009KT 19/16 A2996 RMK A01 T01900164  RH  089%=      5-min Rain = 0
KWVS 241105Z 02010KT 19/16 A2996 RMK A01 T01870163  RH  090%=      5-min Rain = 0
KWVS 241110Z 01010KT 18/16 A2996 RMK A01 T01840161  RH  091%=      5-min Rain = 0
KWVS 241115Z 01011KT 18/16 A2996 RMK A01 T01820159  RH  091%=      5-min Rain = 0
KWVS 241120Z 01011KT 18/16 A2996 RMK A01 T01800157  RH  090%=      5-min Rain = 0
KWVS 241125Z 01010KT 18/16 A2996 RMK A01 T01790155  RH  090%=      5-min Rain = 0
KWVS 241130Z 01010KT 18/16 A2996 RMK A01 T01780155  RH  090%=      5-min Rain = 0
KWVS 241135Z 01010KT 18/15 A2996 RMK A01 T01770154  RH  091%=      5-min Rain = 0
KWVS 241140Z 01009KT 18/15 A2996 RMK A01 T01760154  RH  091%=      5-min Rain = 0
KWVS 241145Z 01009KT 18/15 A2996 RMK A01 T01760154  RH  091%=      5-min Rain = 0
KWVS 241150Z 01009KT 18/15 A2996 RMK A01 T01760154  RH  091%=      5-min Rain = 0
KWVS 241155Z 01009KT 18/16 A2996 RMK A01 T01760155  RH  091%=      5-min Rain = 0
KWVS 241200Z 01009KT 18/16 A2996 RMK A01 T01790157  RH  091%=      5-min Rain = 0
KWVS 241205Z 01009KT 18/16 A2996 RMK A01 T01810159  RH  091%=      5-min Rain = 0
KWVS 241210Z 01009KT 18/16 A2996 RMK A01 T01840161  RH  091%=      5-min Rain = 0
KWVS 241215Z 01009KT 19/16 A2996 RMK A01 T01850162  RH  091%=      5-min Rain = 0
KWVS 241220Z 01011KT 19/16 A2996 RMK A01 T01870162  RH  090%=      5-min Rain = 0
KWVS 241225Z 01011KT 19/16 A2997 RMK A01 T01870160  RH  088%=      5-min Rain = 0
KWVS 241230Z 01011KT 19/16 A2997 RMK A01 T01880156  RH  086%=      5-min Rain = 0
KWVS 241235Z 01011KT 19/15 A2997 RMK A01 T01880153  RH  084%=      5-min Rain = 0
KWVS 241240Z 01012KT 19/15 A2997 RMK A01 T01880151  RH  083%=      5-min Rain = 0
KWVS 241245Z 01011KT 19/15 A2997 RMK A01 T01890152  RH  082%=      5-min Rain = 0
KWVS 241250Z 01011KT 19/15 A2997 RMK A01 T01910152  RH  082%=      5-min Rain = 0
KWVS 241255Z 01011KT 19/15 A2998 RMK A01 T01930152  RH  081%=      5-min Rain = 0
KWVS 241300Z 01011KT 19/15 A2998 RMK A01 T01940153  RH  080%=      5-min Rain = 0
KWVS 241305Z 01012KT 20/15 A2998 RMK A01 T01950151  RH  079%=      5-min Rain = 0
KWVS 241310Z 01011KT 20/15 A2998 RMK A01 T01980151  RH  078%=      5-min Rain = 0
KWVS 241315Z 01010KT 20/15 A2998 RMK A01 T02000150  RH  076%=      5-min Rain = 0
KWVS 241320Z 02010G15KT 20/15 A2999 RMK A01 T02030150  RH  075%=      5-min Rain = 0
KWVS 241325Z 02011KT 20/15 A2999 RMK A01 T02040149  RH  074%=      5-min Rain = 0
KWVS 241330Z 02010KT 21/15 A2999 RMK A01 T02060149  RH  073%=      5-min Rain = 0
KWVS 241335Z 03009KT 21/15 A2999 RMK A01 T02070148  RH  072%=      5-min Rain = 0
KWVS 241340Z 03009KT 21/15 A2999 RMK A01 T02110151  RH  072%=      5-min Rain = 0
KWVS 241345Z 02009KT 21/15 A2999 RMK A01 T02130154  RH  072%=      5-min Rain = 0
KWVS 241350Z 03008KT 22/16 A2999 RMK A01 T02160157  RH  072%=      5-min Rain = 0
KWVS 241355Z 05009G14KT 22/16 A30 RMK A01 T02190164  RH  074%=      5-min Rain = 0
KWVS 241400Z 05011G17KT 23/17 A30 RMK A01 T02250169  RH  074%=      5-min Rain = 0
KWVS 241405Z 05013G18KT 22/17 A30 RMK A01 T02220168  RH  075%=      5-min Rain = 0
KWVS 241410Z 05012KT 22/17 A30 RMK A01 T02220168  RH  075%=      5-min Rain = 0
KWVS 241415Z 05012KT 22/17 A30 RMK A01 T02240168  RH  075%=      5-min Rain = 0
KWVS 241420Z 05010G17KT 22/17 A30 RMK A01 T02230169  RH  075%=      5-min Rain = 0
KWVS 241425Z 06012KT 22/17 A30 RMK A01 T02240167  RH  074%=      5-min Rain = 0
KWVS 241430Z 06012G18KT 22/17 A3001 RMK A01 T02230166  RH  073%=      5-min Rain = 0
KWVS 241435Z 06011G16KT 23/17 A3001 RMK A01 T02280167  RH  072%=      5-min Rain = 0
KWVS 241440Z 07010G15KT 23/17 A3001 RMK A01 T02320168  RH  070%=      5-min Rain = 0
KWVS 241445Z 06011G16KT 23/17 A3001 RMK A01 T02310166  RH  070%=      5-min Rain = 0
KWVS 241450Z 06012KT 23/17 A3001 RMK A01 T02300165  RH  070%=      5-min Rain = 0
KWVS 241455Z 06011G18KT 23/17 A3001 RMK A01 T02330165  RH  069%=      5-min Rain = 0
KWVS 241500Z 06010G17KT 24/17 A3001 RMK A01 T02360165  RH  068%=      5-min Rain = 0
KWVS 241505Z 05011KT 24/17 A3001 RMK A01 T02400167  RH  067%=      5-min Rain = 0
KWVS 241510Z 06010KT 24/17 A3001 RMK A01 T02400165  RH  066%=      5-min Rain = 0
KWVS 241515Z 06010G15KT 24/16 A3001 RMK A01 T02380164  RH  066%=      5-min Rain = 0
KWVS 241520Z 06012G17KT 24/16 A3001 RMK A01 T02410164  RH  065%=      5-min Rain = 0
KWVS 241525Z 06011G17KT 24/16 A3001 RMK A01 T02430163  RH  064%=      5-min Rain = 0
KWVS 241530Z 07011KT 24/16 A3001 RMK A01 T02440163  RH  064%=      5-min Rain = 0
KWVS 241535Z 08011KT 25/16 A3001 RMK A01 T02470160  RH  061%=      5-min Rain = 0
KWVS 241540Z 07010KT 25/16 A3001 RMK A01 T02480161  RH  061%=      5-min Rain = 0
KWVS 241545Z 06011G18KT 25/16 A3001 RMK A01 T02490160  RH  061%=      5-min Rain = 0
KWVS 241550Z 07011KT 25/16 A3001 RMK A01 T02500157  RH  059%=      5-min Rain = 0
KWVS 241555Z 07011KT 25/16 A30 RMK A01 T02520158  RH  059%=      5-min Rain = 0
KWVS 241600Z 08010KT 25/16 A30 RMK A01 T02530155  RH  057%=      5-min Rain = 0
KWVS 241605Z 07011G17KT 25/15 A30 RMK A01 T02540152  RH  056%=      5-min Rain = 0
KWVS 241610Z 08010KT 26/15 A30 RMK A01 T02580149  RH  053%=      5-min Rain = 0
KWVS 241615Z 07010G15KT 26/15 A30 RMK A01 T02620148  RH  052%=      5-min Rain = 0
KWVS 241620Z 08012KT 26/14 A30 RMK A01 T02620142  RH  049%=      5-min Rain = 0
KWVS 241625Z 07010G17KT 26/14 A30 RMK A01 T02600144  RH  051%=      5-min Rain = 0
KWVS 241630Z 08013KT 27/14 A30 RMK A01 T02650140  RH  048%=      5-min Rain = 0
KWVS 241635Z 09011G16KT 27/14 A30 RMK A01 T02650137  RH  047%=      5-min Rain = 0
KWVS 241640Z 09011G19KT 27/14 A30 RMK A01 T02650139  RH  048%=      5-min Rain = 0
KWVS 241645Z 09013G18KT 27/13 A30 RMK A01 T02660130  RH  045%=      5-min Rain = 0
KWVS 241650Z 08012G17KT 27/13 A30 RMK A01 T02680132  RH  045%=      5-min Rain = 0
KWVS 241655Z 08011G16KT 27/14 A30 RMK A01 T02710136  RH  045%=      5-min Rain = 0
KWVS 241700Z 08013G19KT 27/13 A2999 RMK A01 T02710132  RH  044%=      5-min Rain = 0
KWVS 241705Z 09011G16KT 27/14 A2999 RMK A01 T02690138  RH  046%=      5-min Rain = 0
KWVS 241710Z 09013KT 27/13 A2999 RMK A01 T02710134  RH  045%=      5-min Rain = 0
KWVS 241715Z 08013G18KT 27/14 A2999 RMK A01 T02700135  RH  045%=      5-min Rain = 0
KWVS 241720Z 09011KT 27/14 A2999 RMK A01 T02740139  RH  045%=      5-min Rain = 0
KWVS 241725Z 08014G21KT 27/14 A2999 RMK A01 T02730138  RH  045%=      5-min Rain = 0
KWVS 241730Z 09010G16KT 27/14 A2999 RMK A01 T02730141  RH  046%=      5-min Rain = 0
KWVS 241735Z 10011KT 28/14 A2999 RMK A01 T02790142  RH  045%=      5-min Rain = 0
KWVS 241740Z 10011G16KT 28/14 A2999 RMK A01 T02780143  RH  046%=      5-min Rain = 0
KWVS 241745Z 09012G19KT 27/14 A2999 RMK A01 T02740141  RH  046%=      5-min Rain = 0
KWVS 241750Z 09012G17KT 28/14 A2998 RMK A01 T02760142  RH  046%=      5-min Rain = 0
KWVS 241755Z 07010G17KT 28/15 A2998 RMK A01 T02770145  RH  046%=      5-min Rain = 0
KWVS 241805Z 09011G20KT 28/15 A2998 RMK A01 T02820150  RH  046%=      5-min Rain = 0
KWVS 241810Z 11011G18KT 28/15 A2998 RMK A01 T02780149  RH  047%=      5-min Rain = 0
KWVS 241815Z 09010G17KT 28/15 A2998 RMK A01 T02810151  RH  047%=      5-min Rain = 0
KWVS 241820Z 10011G16KT 28/15 A2998 RMK A01 T02810151  RH  047%=      5-min Rain = 0
KWVS 241825Z 10010G15KT 28/16 A2998 RMK A01 T02800155  RH  049%=      5-min Rain = 0
KWVS 241830Z 09009G14KT 29/16 A2998 RMK A01 T02850158  RH  048%=      5-min Rain = 0
KWVS 241835Z 10010G17KT 28/16 A2997 RMK A01 T02830158  RH  049%=      5-min Rain = 0
KWVS 241840Z 09011G17KT 28/16 A2997 RMK A01 T02820159  RH  049%=      5-min Rain = 0
KWVS 241845Z 11010G16KT 28/16 A2997 RMK A01 T02840161  RH  049%=      5-min Rain = 0
KWVS 241850Z 10010G16KT 28/16 A2997 RMK A01 T02840161  RH  050%=      5-min Rain = 0
KWVS 241855Z 11012G17KT 28/16 A2997 RMK A01 T02840161  RH  049%=      5-min Rain = 0
KWVS 241900Z 10010G19KT 29/16 A2997 RMK A01 T02860161  RH  049%=      5-min Rain = 0
KWVS 241905Z 09011KT 28/16 A2997 RMK A01 T02840162  RH  050%=      5-min Rain = 0
KWVS 241910Z 12011KT 29/16 A2997 RMK A01 T02910163  RH  048%=      5-min Rain = 0
KWVS 241915Z 08011G18KT 29/16 A2996 RMK A01 T02880161  RH  048%=      5-min Rain = 0
KWVS 241920Z 10012G19KT 29/16 A2996 RMK A01 T02900163  RH  049%=      5-min Rain = 0
KWVS 241925Z 08010KT 29/16 A2996 RMK A01 T02890162  RH  048%=      5-min Rain = 0
KWVS 241930Z 11011KT 29/16 A2996 RMK A01 T02890163  RH  049%=      5-min Rain = 0
KWVS 241935Z 10009KT 29/16 A2996 RMK A01 T02910163  RH  048%=      5-min Rain = 0
KWVS 241940Z 10011KT 29/16 A2996 RMK A01 T02920164  RH  048%=      5-min Rain = 0
KWVS 241945Z 12009G16KT 29/17 A2996 RMK A01 T02930166  RH  049%=      5-min Rain = 0
KWVS 241950Z 11010KT 30/17 A2996 RMK A01 T02960167  RH  048%=      5-min Rain = 0
KWVS 241955Z 09011G16KT 29/16 A2996 RMK A01 T02920164  RH  048%=      5-min Rain = 0
KWVS 242000Z 12009G14KT 29/16 A2995 RMK A01 T02900164  RH  049%=      5-min Rain = 0
KWVS 242005Z 11009G14KT 30/17 A2995 RMK A01 T02950168  RH  049%=      5-min Rain = 0
KWVS 242010Z 13009G16KT 30/17 A2995 RMK A01 T02980167  RH  047%=      5-min Rain = 0
KWVS 242015Z 10010G16KT 30/17 A2995 RMK A01 T02960169  RH  049%=      5-min Rain = 0
KWVS 242020Z 09008G13KT 30/17 A2995 RMK A01 T02990173  RH  049%=      5-min Rain = 0
KWVS 242025Z 09009KT 30/17 A2994 RMK A01 T02960169  RH  049%=      5-min Rain = 0
KWVS 242030Z 13012G19KT 30/17 A2994 RMK A01 T02960171  RH  050%=      5-min Rain = 0
KWVS 242035Z 09010G16KT 30/17 A2994 RMK A01 T02970171  RH  049%=      5-min Rain = 0
KWVS 242040Z 09009G18KT 30/17 A2994 RMK A01 T02960171  RH  049%=      5-min Rain = 0
KWVS 242045Z 09009KT 29/17 A2994 RMK A01 T02930170  RH  050%=      5-min Rain = 0
KWVS 242050Z 12010G15KT 29/17 A2994 RMK A01 T02920169  RH  050%=      5-min Rain = 0
KWVS 242055Z 12006KT 29/17 A2994 RMK A01 T02870167  RH  051%=      5-min Rain = 0
KWVS 242100Z 13009G15KT 30/17 A2994 RMK A01 T02970173  RH  050%=      5-min Rain = 0
KWVS 242105Z 13007G12KT 30/18 A2994 RMK A01 T03000175  RH  050%=      5-min Rain = 0
KWVS 242110Z 11008G14KT 30/18 A2993 RMK A01 T03030176  RH  049%=      5-min Rain = 0
KWVS 242115Z 12009G14KT 30/17 A2993 RMK A01 T03000172  RH  048%=      5-min Rain = 0
KWVS 242120Z 14009G14KT 30/18 A2993 RMK A01 T03020175  RH  049%=      5-min Rain = 0
KWVS 242125Z 12010G17KT 30/18 A2993 RMK A01 T03040177  RH  049%=      5-min Rain = 0
KWVS 242130Z 11011G17KT 30/17 A2992 RMK A01 T03000174  RH  049%=      5-min Rain = 0
KWVS 242135Z 11013G20KT 30/17 A2992 RMK A01 T02980172  RH  049%=      5-min Rain = 0
KWVS 242140Z 11009KT 29/17 A2992 RMK A01 T02910172  RH  051%=      5-min Rain = 0
KWVS 242145Z 10007KT 30/17 A2991 RMK A01 T02960172  RH  050%=      5-min Rain = 0
KWVS 242150Z 11008KT 30/17 A2991 RMK A01 T03030172  RH  048%=      5-min Rain = 0
KWVS 242155Z 11009G16KT 30/17 A2991 RMK A01 T03000172  RH  049%=      5-min Rain = 0
KWVS 242200Z 12009KT 30/17 A2991 RMK A01 T03010174  RH  049%=      5-min Rain = 0
KWVS 242205Z 09009KT 30/18 A299 RMK A01 T03030176  RH  049%=      5-min Rain = 0
KWVS 242210Z 08009KT 30/17 A299 RMK A01 T03010172  RH  048%=      5-min Rain = 0
KWVS 242215Z 11009G14KT 30/17 A299 RMK A01 T03030173  RH  048%=      5-min Rain = 0
KWVS 242220Z 12007KT 30/17 A299 RMK A01 T03010171  RH  048%=      5-min Rain = 0
KWVS 242225Z 13007KT 31/18 A299 RMK A01 T03070175  RH  048%=      5-min Rain = 0
KWVS 242230Z 14009G14KT 30/17 A299 RMK A01 T03040169  RH  046%=      5-min Rain = 0
KWVS 242235Z 14009KT 30/17 A299 RMK A01 T03040173  RH  048%=      5-min Rain = 0
KWVS 242240Z 11009KT 31/17 A299 RMK A01 T03050173  RH  048%=      5-min Rain = 0
KWVS 242245Z 13009G16KT 30/17 A299 RMK A01 T02970171  RH  049%=      5-min Rain = 0
KWVS 242250Z 11009KT 30/17 A299 RMK A01 T03010172  RH  048%=      5-min Rain = 0
KWVS 242255Z 11009KT 30/17 A299 RMK A01 T03040171  RH  047%=      5-min Rain = 0
KWVS 242300Z 10008KT 30/17 A299 RMK A01 T03000170  RH  048%=      5-min Rain = 0
KWVS 242305Z 10009KT 30/17 A299 RMK A01 T03010171  RH  048%=      5-min Rain = 0
KWVS 242310Z 11008KT 31/17 A2989 RMK A01 T03050170  RH  046%=      5-min Rain = 0
KWVS 242315Z 11010KT 30/17 A2989 RMK A01 T03030167  RH  046%=      5-min Rain = 0
KWVS 242320Z 11009KT 30/17 A2989 RMK A01 T03030170  RH  047%=      5-min Rain = 0
KWVS 242325Z 11009KT 30/17 A2989 RMK A01 T03010171  RH  048%=      5-min Rain = 0
KWVS 242330Z 11011KT 30/17 A2989 RMK A01 T03010169  RH  048%=      5-min Rain = 0
KWVS 242335Z 10008KT 30/17 A2989 RMK A01 T02990169  RH  048%=      5-min Rain = 0
KWVS 242340Z 09009KT 30/17 A2989 RMK A01 T03000169  RH  047%=      5-min Rain = 0
KWVS 242345Z 10007KT 30/17 A2989 RMK A01 T03000170  RH  048%=      5-min Rain = 0
KWVS 242350Z 09010G15KT 29/17 A2988 RMK A01 T02940165  RH  048%=      5-min Rain = 0
KWVS 242355Z 10009G14KT 29/17 A2988 RMK A01 T02910168  RH  050%=      5-min Rain = 0
KWVS 250000Z 10010KT 29/17 A2988 RMK A01 T02880166  RH  050%=      5-min Rain = 0
KWVS 250005Z 10011G16KT 29/17 A2988 RMK A01 T02860165  RH  050%=      5-min Rain = 0
KWVS 250010Z 10013G18KT 28/16 A2988 RMK A01 T02840163  RH  050%=      5-min Rain = 0
KWVS 250015Z 10011KT 28/16 A2988 RMK A01 T02820164  RH  051%=      5-min Rain = 0
KWVS 250020Z 10011KT 28/16 A2988 RMK A01 T02810163  RH  051%=      5-min Rain = 0
KWVS 250025Z 10010KT 28/16 A2988 RMK A01 T02790164  RH  052%=      5-min Rain = 0
KWVS 250030Z 10011KT 28/17 A2988 RMK A01 T02770166  RH  053%=      5-min Rain = 0
KWVS 250035Z 10011KT 28/17 A2988 RMK A01 T02750166  RH  054%=      5-min Rain = 0
KWVS 250040Z 11010KT 28/17 A299 RMK A01 T02750166  RH  054%=      5-min Rain = 0
KWVS 250045Z 11012KT 27/17 A299 RMK A01 T02740167  RH  055%=      5-min Rain = 0
KWVS 250050Z 11012KT 27/17 A299 RMK A01 T02720169  RH  056%=      5-min Rain = 0
KWVS 250055Z 11010G15KT 27/17 A2991 RMK A01 T02710172  RH  058%=      5-min Rain = 0
KWVS 250100Z 11010G17KT 27/17 A2991 RMK A01 T02700174  RH  059%=      5-min Rain = 0
KWVS 250105Z 11009KT 27/18 A2991 RMK A01 T02690175  RH  060%=      5-min Rain = 0
KWVS 250110Z 12010G15KT 27/18 A2991 RMK A01 T02670176  RH  061%=      5-min Rain = 0
KWVS 250115Z 11010KT 27/18 A2991 RMK A01 T02670177  RH  061%=      5-min Rain = 0
KWVS 250120Z 10012KT 27/18 A299 RMK A01 T02660177  RH  062%=      5-min Rain = 0
KWVS 250125Z 10013G18KT 27/18 A2989 RMK A01 T02650177  RH  062%=      5-min Rain = 0
KWVS 250130Z 10011KT 26/18 A2989 RMK A01 T02640177  RH  062%=      5-min Rain = 0
KWVS 250135Z 09009KT 26/18 A2989 RMK A01 T02630178  RH  062%=      5-min Rain = 0
KWVS 250140Z 09009G14KT 26/18 A299 RMK A01 T02620178  RH  063%=      5-min Rain = 0
KWVS 250145Z 10011KT 26/18 A2989 RMK A01 T02620178  RH  063%=      5-min Rain = 0
KWVS 250150Z 11011KT 26/18 A2991 RMK A01 T02610179  RH  064%=      5-min Rain = 0
KWVS 250155Z 10008KT 26/18 A2991 RMK A01 T02610179  RH  064%=      5-min Rain = 0
KWVS 250200Z 08005G11KT 26/18 A2992 RMK A01 T02600179  RH  064%=      5-min Rain = 0
KWVS 250205Z 11007G14KT 26/18 A2992 RMK A01 T02610180  RH  064%=      5-min Rain = 0
KWVS 250210Z 09012G19KT 26/18 A2992 RMK A01 T02600180  RH  064%=      5-min Rain = 0
KWVS 250215Z 05016G37KT 27/15 A2991 RMK A01 T02740148  RH  050%=      5-min Rain = 0
KWVS 250220Z 16012G26KT 28/17 A2989 RMK A01 T02750170  RH  056%=      5-min Rain = 0
KWVS 250225Z 15022G31KT 26/18 A2986 RMK A01 T02620181  RH  065%=      5-min Rain = 0
KWVS 250230Z 12022G30KT 26/18 A2986 RMK A01 T02600183  RH  066%=      5-min Rain = 0
KWVS 250235Z 10017G25KT 26/18 A2986 RMK A01 T02610182  RH  065%=      5-min Rain = 0
KWVS 250240Z 07010G15KT 26/18 A2987 RMK A01 T02620180  RH  064%=      5-min Rain = 0
KWVS 250245Z 11013G19KT 26/18 A2987 RMK A01 T02590183  RH  066%=      5-min Rain = 0
KWVS 250250Z 13011KT 26/18 A2987 RMK A01 T02560181  RH  067%=      5-min Rain = 0
KWVS 250255Z 09006KT 26/17 A2988 RMK A01 T02570174  RH  063%=      5-min Rain = 0
KWVS 250300Z 33012KT 25/18 A2989 RMK A01 T02540175  RH  065%=      5-min Rain = 0
KWVS 250305Z 30011G16KT 25/17 A2991 RMK A01 T02510174  RH  066%=      5-min Rain = 0
KWVS 250310Z 25012G18KT 25/18 A2991 RMK A01 T02510177  RH  067%=      5-min Rain = 0
KWVS 250315Z 23006G12KT 25/18 A2991 RMK A01 T02540181  RH  067%=      5-min Rain = 0
KWVS 250320Z 23005KT 25/18 A2991 RMK A01 T02530182  RH  069%=      5-min Rain = 0
KWVS 250325Z 20003KT 25/19 A2992 RMK A01 T02520185  RH  070%=      5-min Rain = 0
KWVS 250330Z 16008G15KT 25/19 A2992 RMK A01 T02500185  RH  071%=      5-min Rain = 0
KWVS 250335Z 15014G19KT 25/19 A2993 RMK A01 T02520186  RH  071%=      5-min Rain = 0
KWVS 250340Z 13015G20KT 25/19 A2993 RMK A01 T02520191  RH  073%=      5-min Rain = 0
KWVS 250345Z 12015G23KT 25/19 A2993 RMK A01 T02520194  RH  074%=      5-min Rain = 0
KWVS 250350Z 12013G18KT 25/20 A2994 RMK A01 T02500195  RH  076%=      5-min Rain = 0
KWVS 250355Z 12011G16KT 25/20 A2994 RMK A01 T02480196  RH  077%=      5-min Rain = 0
KWVS 250400Z 12011KT 25/20 A2995 RMK A01 T02470198  RH  079%=      5-min Rain = 0
KWVS 250405Z 13012G18KT 25/20 A2995 RMK A01 T02470200  RH  080%=      5-min Rain = 0
KWVS 250410Z 13012G18KT 25/20 A2996 RMK A01 T02470202  RH  081%=      5-min Rain = 0
KWVS 250415Z 13013KT 25/20 A2996 RMK A01 T02450202  RH  082%=      5-min Rain = 0
KWVS 250420Z 13011G16KT 25/20 A2996 RMK A01 T02450203  RH  082%=      5-min Rain = 0
KWVS 250425Z 14015KT 24/20 A2996 RMK A01 T02440203  RH  083%=      5-min Rain = 0
KWVS 250430Z 13013KT 24/20 A2996 RMK A01 T02420203  RH  084%=      5-min Rain = 0
KWVS 250435Z 14011G17KT 24/20 A2996 RMK A01 T02400203  RH  084%=      5-min Rain = 0
KWVS 250440Z 14011G17KT 24/20 A2996 RMK A01 T02390203  RH  085%=      5-min Rain = 0
KWVS 250445Z 13011KT 24/20 A2996 RMK A01 T02390203  RH  085%=      5-min Rain = 0
KWVS 250450Z 14011KT 24/20 A2995 RMK A01 T02370202  RH  086%=      5-min Rain = 0
KWVS 250455Z 14011KT 24/20 A2995 RMK A01 T02360202  RH  086%=      5-min Rain = 0

Page generated in 0.0086 seconds.